Maersk Danang — A8PS5 — position and weather

sailwx.info

Track history (hours):
 
Tides and Currents Weather Stations Pressure Air Temp Water Temp Dewpoint Dewpoint Depression Visibility Wind Speed Wind Dir Waves Ship Positions

Maersk Danang

Last reported at 2017-Nov-25 22:39 UTC. Time now 2018-Feb-18 01:47 UTC.
Position N 01°18' E 103°20'.
Warning: this ship's position is months out of date.

Length 293 m; draft 13.5 m.

Type: Ship. MMSI: 636091595.

Date/timePositionNaut miles runAvg speedWind from/ knotsBaromVisibWave heightAir tempDewpointWater temp
2017-Nov-25 22:39N 01°18' E 103°20'617.1
2017-Nov-25 22:18N 01°15' E 103°25'516.2
2017-Nov-25 22:00N 01°14' E 103°30'5 9.5
2017-Nov-25 21:30N 01°17' E 103°33'3 5.8
2017-Nov-25 21:00N 01°20' E 103°33'0 0.2
2017-Nov-25 20:19N 01°20' E 103°33'0 0.0
2017-Nov-25 19:43N 01°20' E 103°33'0 0.0
2017-Nov-25 19:25N 01°20' E 103°33'0 0.0
2017-Nov-25 18:55N 01°20' E 103°33'0 0.0
2017-Nov-25 18:13N 01°20' E 103°33'0 0.0
2017-Nov-25 17:55N 01°20' E 103°33'0 0.0
2017-Nov-25 17:28N 01°20' E 103°33'0 0.0
2017-Nov-25 16:55N 01°20' E 103°33'0 0.0
2017-Nov-25 16:22N 01°20' E 103°33'0 0.0
2017-Nov-25 15:58N 01°20' E 103°33'0 0.0
2017-Nov-25 15:24N 01°20' E 103°33'0 0.0
2017-Nov-25 14:54N 01°20' E 103°33'0 0.0
2017-Nov-25 14:21N 01°20' E 103°33'0 0.0
2017-Nov-25 13:51N 01°20' E 103°33'0 0.0
2017-Nov-25 12:39N 01°20' E 103°33'0 0.0
2017-Nov-25 12:27N 01°20' E 103°33'0 0.0
2017-Nov-25 11:39N 01°20' E 103°33'0 0.0
2017-Nov-25 11:03N 01°20' E 103°33'0 0.0
2017-Nov-25 10:39N 01°20' E 103°33'0 0.0
2017-Nov-25 09:09N 01°20' E 103°33'0 0.0
2017-Nov-25 08:57N 01°20' E 103°33'0 0.0
2017-Nov-25 08:21N 01°20' E 103°33'0 0.0
2017-Nov-25 07:45N 01°20' E 103°33'0 0.0
2017-Nov-25 07:24N 01°20' E 103°33'0 0.0
2017-Nov-25 06:45N 01°20' E 103°33'0 0.0
2017-Nov-25 06:09N 01°20' E 103°33'0 0.0
2017-Nov-25 05:57N 01°20' E 103°33'0 0.0
2017-Nov-25 05:21N 01°20' E 103°33'0 0.0
2017-Nov-25 04:54N 01°20' E 103°33'0 0.0
2017-Nov-25 03:57N 01°20' E 103°33'0 0.0
2017-Nov-25 03:27N 01°20' E 103°33'0 0.0
2017-Nov-25 02:51N 01°20' E 103°33'0 0.0
2017-Nov-25 02:24N 01°20' E 103°33'0 0.0
2017-Nov-25 01:57N 01°20' E 103°33'0 0.0
2017-Nov-25 01:24N 01°20' E 103°33'0 0.0
2017-Nov-25 00:48N 01°20' E 103°33'0 0.0
2017-Nov-25 00:20N 01°20' E 103°33'0 0.0
2017-Nov-25 00:00N 01°20' E 103°33'0 0.0
2017-Nov-24 23:28N 01°20' E 103°33'0 0.0
2017-Nov-24 22:08N 01°20' E 103°33'0 0.0
2017-Nov-24 21:59N 01°20' E 103°33'0 0.0
2017-Nov-24 21:26N 01°20' E 103°33'0 0.0
2017-Nov-24 20:52N 01°20' E 103°33'0 0.0
2017-Nov-24 20:28N 01°20' E 103°33'0 0.0
2017-Nov-24 19:58N 01°20' E 103°33'0 0.0
2017-Nov-24 19:28N 01°20' E 103°33'0 0.0
2017-Nov-24 19:00N 01°20' E 103°33'1 1.9
2017-Nov-24 18:30N 01°19' E 103°33'4 8.1
2017-Nov-24 18:00N 01°15' E 103°33'1 2.2
2017-Nov-24 17:26N 01°16' E 103°34'0 0.1
2017-Nov-24 16:56N 01°16' E 103°34'0 0.0
2017-Nov-24 16:29N 01°16' E 103°34'0 0.0
2017-Nov-24 15:56N 01°16' E 103°34'0 0.0
2017-Nov-24 15:26N 01°16' E 103°34'0 0.0
2017-Nov-24 14:56N 01°16' E 103°34'0 0.0
2017-Nov-24 14:29N 01°16' E 103°34'0 0.0
2017-Nov-24 13:59N 01°16' E 103°34'0 0.0
2017-Nov-24 13:26N 01°16' E 103°34'0 0.1
2017-Nov-24 12:47N 01°16' E 103°34'0 0.1
2017-Nov-24 12:20N 01°16' E 103°34'0 0.0
2017-Nov-24 11:53N 01°16' E 103°34'0 0.0
2017-Nov-24 11:26N 01°16' E 103°34'0 0.0
2017-Nov-24 10:56N 01°16' E 103°34'0 0.0
2017-Nov-24 10:26N 01°16' E 103°34'0 0.1
2017-Nov-24 09:50N 01°16' E 103°34'0 0.0
2017-Nov-24 09:29N 01°16' E 103°34'0 0.1
2017-Nov-24 08:59N 01°16' E 103°34'0 0.0
2017-Nov-24 08:20N 01°16' E 103°34'0 0.0
2017-Nov-24 07:56N 01°16' E 103°34'0 0.0
2017-Nov-24 07:29N 01°16' E 103°34'0 0.0
2017-Nov-24 06:47N 01°16' E 103°34'0 0.2
2017-Nov-24 06:26N 01°16' E 103°34'0 0.0
2017-Nov-24 05:20N 01°16' E 103°34'0 0.0
2017-Nov-24 04:53N 01°16' E 103°34'0 0.1
2017-Nov-24 04:23N 01°16' E 103°34'0 0.0
2017-Nov-24 03:59N 01°16' E 103°34'0 0.0
2017-Nov-24 03:20N 01°16' E 103°34'0 0.1
2017-Nov-24 02:53N 01°16' E 103°34'0 0.2
2017-Nov-24 02:29N 01°16' E 103°34'0 0.1
2017-Nov-24 01:59N 01°16' E 103°34'0 0.1
2017-Nov-24 01:29N 01°16' E 103°34'0 0.0
2017-Nov-24 00:56N 01°16' E 103°34'0 0.0
2017-Nov-24 00:26N 01°16' E 103°34'0 0.0
2017-Nov-23 23:50N 01°16' E 103°34'0 0.0
2017-Nov-23 23:29N 01°16' E 103°34'0 0.0
2017-Nov-23 22:47N 01°16' E 103°34'0 0.0
2017-Nov-23 22:26N 01°16' E 103°34'0 0.0
2017-Nov-23 21:56N 01°16' E 103°34'0 0.0
2017-Nov-23 21:29N 01°16' E 103°34'0 0.0
2017-Nov-23 20:44N 01°16' E 103°34'0 0.0
2017-Nov-23 20:29N 01°16' E 103°34'0 0.0
2017-Nov-23 19:56N 01°16' E 103°34'0 0.0
2017-Nov-23 19:29N 01°16' E 103°34'0 0.0
2017-Nov-23 18:47N 01°16' E 103°34'0 0.0
2017-Nov-23 18:29N 01°16' E 103°34'0 0.0
2017-Nov-23 17:53N 01°16' E 103°34'0 0.0
2017-Nov-23 17:29N 01°16' E 103°34'0 0.0
2017-Nov-23 16:47N 01°16' E 103°34'0 0.0
2017-Nov-23 16:30N 01°16' E 103°34'0 0.0
2017-Nov-23 15:52N 01°16' E 103°34'0 0.0
2017-Nov-23 15:28N 01°16' E 103°34'0 0.1
2017-Nov-23 15:00N 01°16' E 103°34'3 6.0
2017-Nov-23 14:30N 01°13' E 103°34'4 7.6
2017-Nov-23 14:00N 01°12' E 103°38'510.2
2017-Nov-23 13:31N 01°14' E 103°42'4 7.6
2017-Nov-23 12:59N 01°17' E 103°45'0 0.0
2017-Nov-23 12:29N 01°17' E 103°45'0 0.0
2017-Nov-23 11:59N 01°17' E 103°45'0 0.0
2017-Nov-23 11:26N 01°17' E 103°45'0 0.0
2017-Nov-23 10:59N 01°17' E 103°45'0 0.0
2017-Nov-23 10:29N 01°17' E 103°45'0 0.0
2017-Nov-23 09:59N 01°17' E 103°45'0 0.0
2017-Nov-23 09:26N 01°17' E 103°45'0 0.0
2017-Nov-23 08:59N 01°17' E 103°45'0 0.0
2017-Nov-23 08:29N 01°17' E 103°45'0 0.0
2017-Nov-23 07:56N 01°17' E 103°45'0 0.0
2017-Nov-23 07:29N 01°17' E 103°45'0 0.0
2017-Nov-23 06:59N 01°17' E 103°45'0 0.0
2017-Nov-23 06:29N 01°17' E 103°45'0 0.0
2017-Nov-23 05:56N 01°17' E 103°45'0 0.0
2017-Nov-23 05:26N 01°17' E 103°45'0 0.0
2017-Nov-23 04:59N 01°17' E 103°45'0 0.0
2017-Nov-23 04:28N 01°17' E 103°45'0 0.0
2017-Nov-23 03:55N 01°17' E 103°45'0 0.0
2017-Nov-23 03:28N 01°17' E 103°45'0 0.3
2017-Nov-23 02:58N 01°17' E 103°45'0 0.3
2017-Nov-23 02:30N 01°17' E 103°45'0 0.0
2017-Nov-23 01:57N 01°17' E 103°45'0 0.1
2017-Nov-23 01:31N 01°17' E 103°45'0 0.7
2017-Nov-23 01:00N 01°16' E 103°45'1 1.5
2017-Nov-23 00:31N 01°16' E 103°46'5 9.9
2017-Nov-23 00:00N 01°12' E 103°50'714.0
2017-Nov-22 23:30N 01°15' E 103°56'2 3.9
2017-Nov-22 22:54N 01°17' E 103°55'0 0.0
2017-Nov-22 22:21N 01°17' E 103°55'0 0.0
2017-Nov-22 22:00N 01°17' E 103°55'0 0.0
2017-Nov-22 21:21N 01°17' E 103°55'0 0.0
2017-Nov-22 19:48N 01°17' E 103°55'  
2017-Nov-20 00:30N 01°17' E 103°55'0 0.0
2017-Nov-20 00:00N 01°17' E 103°55'0 0.0
2017-Nov-19 23:25N 01°17' E 103°55'0 0.0
2017-Nov-19 23:00N 01°17' E 103°55'0 0.0
2017-Nov-19 22:30N 01°17' E 103°55'0 0.0
2017-Nov-19 22:00N 01°17' E 103°55'0 0.0
2017-Nov-19 21:27N 01°17' E 103°55'0 0.0
2017-Nov-19 20:58N 01°17' E 103°55'0 0.0
2017-Nov-19 20:30N 01°17' E 103°55'0 0.0
2017-Nov-19 20:00N 01°17' E 103°55'0 0.0
2017-Nov-19 19:25N 01°17' E 103°55'0 0.0
2017-Nov-19 19:01N 01°17' E 103°55'0 0.0
2017-Nov-19 18:31N 01°17' E 103°55'0 0.0
2017-Nov-19 17:58N 01°17' E 103°55'0 0.0
2017-Nov-19 17:29N 01°17' E 103°55'0 0.0
2017-Nov-19 17:00N 01°17' E 103°55'0 0.0
2017-Nov-19 16:27N 01°17' E 103°55'0 0.0
2017-Nov-19 15:59N 01°17' E 103°55'0 0.0
2017-Nov-19 15:26N 01°17' E 103°55'0 0.0
2017-Nov-19 15:01N 01°17' E 103°55'0 0.0
2017-Nov-19 14:31N 01°17' E 103°55'0 0.0
2017-Nov-19 14:00N 01°17' E 103°55'0 0.0
2017-Nov-19 13:29N 01°17' E 103°55'0 0.0
2017-Nov-19 12:35N 01°17' E 103°55'0 0.0
2017-Nov-19 12:30N 01°17' E 103°55'0 0.0
2017-Nov-19 11:56N 01°17' E 103°55'0 0.0
2017-Nov-19 11:30N 01°17' E 103°55'0 0.0
2017-Nov-19 11:00N 01°17' E 103°55'0 0.1
2017-Nov-19 10:31N 01°17' E 103°55'3 5.5
2017-Nov-19 10:00N 01°15' E 103°57'2 4.1
2017-Nov-19 09:30N 01°14' E 103°56'4 8.3
2017-Nov-19 09:00N 01°12' E 103°52'510.9
2017-Nov-19 08:30N 01°09' E 103°48'612.1
2017-Nov-19 07:59N 01°05' E 103°43'611.5
2017-Nov-19 07:30N 01°03' E 103°38'711.5
2017-Nov-19 06:54N 01°08' E 103°33'512.1
2017-Nov-19 06:30N 01°13' E 103°32'510.1
2017-Nov-19 05:59N 01°18' E 103°33'3 5.2
2017-Nov-19 05:30N 01°21' E 103°33'0 0.0
2017-Nov-19 04:53N 01°21' E 103°33'0 0.0
2017-Nov-19 04:11N 01°21' E 103°33'0 0.0
2017-Nov-19 03:59N 01°21' E 103°33'0 0.0
2017-Nov-19 02:59N 01°21' E 103°33'0 0.0
2017-Nov-19 02:29N 01°21' E 103°33'0 0.0
2017-Nov-19 01:55N 01°21' E 103°33'0 0.0
2017-Nov-19 01:28N 01°21' E 103°33'0 0.0
2017-Nov-19 00:55N 01°21' E 103°33'0 0.0
2017-Nov-19 00:28N 01°21' E 103°33'0 0.0
2017-Nov-18 23:55N 01°21' E 103°33'0 0.0
2017-Nov-18 23:28N 01°21' E 103°33'0 0.0
2017-Nov-18 22:58N 01°21' E 103°33'0 0.0
2017-Nov-18 22:28N 01°21' E 103°33'0 0.0
2017-Nov-18 22:00N 01°21' E 103°33'0 0.0
2017-Nov-18 21:30N 01°21' E 103°33'0 0.0
2017-Nov-18 20:42N 01°21' E 103°33'0 0.1
2017-Nov-18 20:30N 01°21' E 103°33'0 0.0
2017-Nov-18 19:42N 01°21' E 103°33'0 0.0
2017-Nov-18 19:30N 01°21' E 103°33'0 0.0
2017-Nov-18 19:00N 01°21' E 103°33'0 0.0
2017-Nov-18 18:30N 01°21' E 103°33'0 0.0
2017-Nov-18 18:00N 01°21' E 103°33'0 0.0
2017-Nov-18 17:30N 01°21' E 103°33'0 0.0
2017-Nov-18 16:57N 01°21' E 103°33'0 0.0
2017-Nov-18 16:24N 01°21' E 103°33'0 0.0
2017-Nov-18 15:54N 01°21' E 103°33'0 0.0
2017-Nov-18 15:27N 01°21' E 103°33'0 0.0
2017-Nov-18 14:57N 01°21' E 103°33'0 0.0
2017-Nov-18 14:27N 01°21' E 103°33'0 0.0
2017-Nov-18 13:54N 01°21' E 103°33'0 0.0
2017-Nov-18 13:30N 01°21' E 103°33'0 0.0
2017-Nov-18 13:00N 01°21' E 103°33'0 0.0
2017-Nov-18 12:26N 01°21' E 103°33'1 3.5
2017-Nov-18 12:00N 01°19' E 103°33'611.0
2017-Nov-18 11:30N 01°14' E 103°32'3 6.3
2017-Nov-18 11:01N 01°12' E 103°35'611.1
2017-Nov-18 10:30N 01°10' E 103°40'611.7
2017-Nov-18 10:00N 01°09' E 103°46'612.4
2017-Nov-18 09:30N 01°12' E 103°52'713.6
2017-Nov-18 09:01N 01°15' E 103°58'  
Track history (hours):
 
Tides and Currents Weather Stations Pressure Air Temp Water Temp Dewpoint Dewpoint Depression Visibility Wind Speed Wind Dir Waves Ship Positions

Maersk Danang

Last reported at 2017-Nov-25 22:39 UTC. Time now 2018-Feb-18 01:47 UTC.
Position N 01°18' E 103°20'.
Warning: this ship's position is months out of date.

Length 293 m; draft 13.5 m.

Type: Ship. MMSI: 636091595.

Date/timePositionNaut miles runAvg speedWind from/ knotsBaromVisibWave heightAir tempDewpointWater temp
2017-Nov-25 22:39N 01°18' E 103°20'617.1
2017-Nov-25 22:18N 01°15' E 103°25'516.2
2017-Nov-25 22:00N 01°14' E 103°30'5 9.5
2017-Nov-25 21:30N 01°17' E 103°33'3 5.8
2017-Nov-25 21:00N 01°20' E 103°33'0 0.2
2017-Nov-25 20:19N 01°20' E 103°33'0 0.0
2017-Nov-25 19:43N 01°20' E 103°33'0 0.0
2017-Nov-25 19:25N 01°20' E 103°33'0 0.0
2017-Nov-25 18:55N 01°20' E 103°33'0 0.0
2017-Nov-25 18:13N 01°20' E 103°33'0 0.0
2017-Nov-25 17:55N 01°20' E 103°33'0 0.0
2017-Nov-25 17:28N 01°20' E 103°33'0 0.0
2017-Nov-25 16:55N 01°20' E 103°33'0 0.0
2017-Nov-25 16:22N 01°20' E 103°33'0 0.0
2017-Nov-25 15:58N 01°20' E 103°33'0 0.0
2017-Nov-25 15:24N 01°20' E 103°33'0 0.0
2017-Nov-25 14:54N 01°20' E 103°33'0 0.0
2017-Nov-25 14:21N 01°20' E 103°33'0 0.0
2017-Nov-25 13:51N 01°20' E 103°33'0 0.0
2017-Nov-25 12:39N 01°20' E 103°33'0 0.0
2017-Nov-25 12:27N 01°20' E 103°33'0 0.0
2017-Nov-25 11:39N 01°20' E 103°33'0 0.0
2017-Nov-25 11:03N 01°20' E 103°33'0 0.0
2017-Nov-25 10:39N 01°20' E 103°33'0 0.0
2017-Nov-25 09:09N 01°20' E 103°33'0 0.0
2017-Nov-25 08:57N 01°20' E 103°33'0 0.0
2017-Nov-25 08:21N 01°20' E 103°33'0 0.0
2017-Nov-25 07:45N 01°20' E 103°33'0 0.0
2017-Nov-25 07:24N 01°20' E 103°33'0 0.0
2017-Nov-25 06:45N 01°20' E 103°33'0 0.0
2017-Nov-25 06:09N 01°20' E 103°33'0 0.0
2017-Nov-25 05:57N 01°20' E 103°33'0 0.0
2017-Nov-25 05:21N 01°20' E 103°33'0 0.0
2017-Nov-25 04:54N 01°20' E 103°33'0 0.0
2017-Nov-25 03:57N 01°20' E 103°33'0 0.0
2017-Nov-25 03:27N 01°20' E 103°33'0 0.0
2017-Nov-25 02:51N 01°20' E 103°33'0 0.0
2017-Nov-25 02:24N 01°20' E 103°33'0 0.0
2017-Nov-25 01:57N 01°20' E 103°33'0 0.0
2017-Nov-25 01:24N 01°20' E 103°33'0 0.0
2017-Nov-25 00:48N 01°20' E 103°33'0 0.0
2017-Nov-25 00:20N 01°20' E 103°33'0 0.0
2017-Nov-25 00:00N 01°20' E 103°33'0 0.0
2017-Nov-24 23:28N 01°20' E 103°33'0 0.0
2017-Nov-24 22:08N 01°20' E 103°33'0 0.0
2017-Nov-24 21:59N 01°20' E 103°33'0 0.0
2017-Nov-24 21:26N 01°20' E 103°33'0 0.0
2017-Nov-24 20:52N 01°20' E 103°33'0 0.0
2017-Nov-24 20:28N 01°20' E 103°33'0 0.0
2017-Nov-24 19:58N 01°20' E 103°33'0 0.0
2017-Nov-24 19:28N 01°20' E 103°33'0 0.0
2017-Nov-24 19:00N 01°20' E 103°33'1 1.9
2017-Nov-24 18:30N 01°19' E 103°33'4 8.1
2017-Nov-24 18:00N 01°15' E 103°33'1 2.2
2017-Nov-24 17:26N 01°16' E 103°34'0 0.1
2017-Nov-24 16:56N 01°16' E 103°34'0 0.0
2017-Nov-24 16:29N 01°16' E 103°34'0 0.0
2017-Nov-24 15:56N 01°16' E 103°34'0 0.0
2017-Nov-24 15:26N 01°16' E 103°34'0 0.0
2017-Nov-24 14:56N 01°16' E 103°34'0 0.0
2017-Nov-24 14:29N 01°16' E 103°34'0 0.0
2017-Nov-24 13:59N 01°16' E 103°34'0 0.0
2017-Nov-24 13:26N 01°16' E 103°34'0 0.1
2017-Nov-24 12:47N 01°16' E 103°34'0 0.1
2017-Nov-24 12:20N 01°16' E 103°34'0 0.0
2017-Nov-24 11:53N 01°16' E 103°34'0 0.0
2017-Nov-24 11:26N 01°16' E 103°34'0 0.0
2017-Nov-24 10:56N 01°16' E 103°34'0 0.0
2017-Nov-24 10:26N 01°16' E 103°34'0 0.1
2017-Nov-24 09:50N 01°16' E 103°34'0 0.0
2017-Nov-24 09:29N 01°16' E 103°34'0 0.1
2017-Nov-24 08:59N 01°16' E 103°34'0 0.0
2017-Nov-24 08:20N 01°16' E 103°34'0 0.0
2017-Nov-24 07:56N 01°16' E 103°34'0 0.0
2017-Nov-24 07:29N 01°16' E 103°34'0 0.0
2017-Nov-24 06:47N 01°16' E 103°34'0 0.2
2017-Nov-24 06:26N 01°16' E 103°34'0 0.0
2017-Nov-24 05:20N 01°16' E 103°34'0 0.0
2017-Nov-24 04:53N 01°16' E 103°34'0 0.1
2017-Nov-24 04:23N 01°16' E 103°34'0 0.0
2017-Nov-24 03:59N 01°16' E 103°34'0 0.0
2017-Nov-24 03:20N 01°16' E 103°34'0 0.1
2017-Nov-24 02:53N 01°16' E 103°34'0 0.2
2017-Nov-24 02:29N 01°16' E 103°34'0 0.1
2017-Nov-24 01:59N 01°16' E 103°34'0 0.1
2017-Nov-24 01:29N 01°16' E 103°34'0 0.0
2017-Nov-24 00:56N 01°16' E 103°34'0 0.0
2017-Nov-24 00:26N 01°16' E 103°34'0 0.0
2017-Nov-23 23:50N 01°16' E 103°34'0 0.0
2017-Nov-23 23:29N 01°16' E 103°34'0 0.0
2017-Nov-23 22:47N 01°16' E 103°34'0 0.0
2017-Nov-23 22:26N 01°16' E 103°34'0 0.0
2017-Nov-23 21:56N 01°16' E 103°34'0 0.0
2017-Nov-23 21:29N 01°16' E 103°34'0 0.0
2017-Nov-23 20:44N 01°16' E 103°34'0 0.0
2017-Nov-23 20:29N 01°16' E 103°34'0 0.0
2017-Nov-23 19:56N 01°16' E 103°34'0 0.0
2017-Nov-23 19:29N 01°16' E 103°34'0 0.0
2017-Nov-23 18:47N 01°16' E 103°34'0 0.0
2017-Nov-23 18:29N 01°16' E 103°34'0 0.0
2017-Nov-23 17:53N 01°16' E 103°34'0 0.0
2017-Nov-23 17:29N 01°16' E 103°34'0 0.0
2017-Nov-23 16:47N 01°16' E 103°34'0 0.0
2017-Nov-23 16:30N 01°16' E 103°34'0 0.0
2017-Nov-23 15:52N 01°16' E 103°34'0 0.0
2017-Nov-23 15:28N 01°16' E 103°34'0 0.1
2017-Nov-23 15:00N 01°16' E 103°34'3 6.0
2017-Nov-23 14:30N 01°13' E 103°34'4 7.6
2017-Nov-23 14:00N 01°12' E 103°38'510.2
2017-Nov-23 13:31N 01°14' E 103°42'4 7.6
2017-Nov-23 12:59N 01°17' E 103°45'0 0.0
2017-Nov-23 12:29N 01°17' E 103°45'0 0.0
2017-Nov-23 11:59N 01°17' E 103°45'0 0.0
2017-Nov-23 11:26N 01°17' E 103°45'0 0.0
2017-Nov-23 10:59N 01°17' E 103°45'0 0.0
2017-Nov-23 10:29N 01°17' E 103°45'0 0.0
2017-Nov-23 09:59N 01°17' E 103°45'0 0.0
2017-Nov-23 09:26N 01°17' E 103°45'0 0.0
2017-Nov-23 08:59N 01°17' E 103°45'0 0.0
2017-Nov-23 08:29N 01°17' E 103°45'0 0.0
2017-Nov-23 07:56N 01°17' E 103°45'0 0.0
2017-Nov-23 07:29N 01°17' E 103°45'0 0.0
2017-Nov-23 06:59N 01°17' E 103°45'0 0.0
2017-Nov-23 06:29N 01°17' E 103°45'0 0.0
2017-Nov-23 05:56N 01°17' E 103°45'0 0.0
2017-Nov-23 05:26N 01°17' E 103°45'0 0.0
2017-Nov-23 04:59N 01°17' E 103°45'0 0.0
2017-Nov-23 04:28N 01°17' E 103°45'0 0.0
2017-Nov-23 03:55N 01°17' E 103°45'0 0.0
2017-Nov-23 03:28N 01°17' E 103°45'0 0.3
2017-Nov-23 02:58N 01°17' E 103°45'0 0.3
2017-Nov-23 02:30N 01°17' E 103°45'0 0.0
2017-Nov-23 01:57N 01°17' E 103°45'0 0.1
2017-Nov-23 01:31N 01°17' E 103°45'0 0.7
2017-Nov-23 01:00N 01°16' E 103°45'1 1.5
2017-Nov-23 00:31N 01°16' E 103°46'5 9.9
2017-Nov-23 00:00N 01°12' E 103°50'714.0
2017-Nov-22 23:30N 01°15' E 103°56'2 3.9
2017-Nov-22 22:54N 01°17' E 103°55'0 0.0
2017-Nov-22 22:21N 01°17' E 103°55'0 0.0
2017-Nov-22 22:00N 01°17' E 103°55'0 0.0
2017-Nov-22 21:21N 01°17' E 103°55'0 0.0
2017-Nov-22 19:48N 01°17' E 103°55'  
2017-Nov-20 00:30N 01°17' E 103°55'0 0.0
2017-Nov-20 00:00N 01°17' E 103°55'0 0.0
2017-Nov-19 23:25N 01°17' E 103°55'0 0.0
2017-Nov-19 23:00N 01°17' E 103°55'0 0.0
2017-Nov-19 22:30N 01°17' E 103°55'0 0.0
2017-Nov-19 22:00N 01°17' E 103°55'0 0.0
2017-Nov-19 21:27N 01°17' E 103°55'0 0.0
2017-Nov-19 20:58N 01°17' E 103°55'0 0.0
2017-Nov-19 20:30N 01°17' E 103°55'0 0.0
2017-Nov-19 20:00N 01°17' E 103°55'0 0.0
2017-Nov-19 19:25N 01°17' E 103°55'0 0.0
2017-Nov-19 19:01N 01°17' E 103°55'0 0.0
2017-Nov-19 18:31N 01°17' E 103°55'0 0.0
2017-Nov-19 17:58N 01°17' E 103°55'0 0.0
2017-Nov-19 17:29N 01°17' E 103°55'0 0.0
2017-Nov-19 17:00N 01°17' E 103°55'0 0.0
2017-Nov-19 16:27N 01°17' E 103°55'0 0.0
2017-Nov-19 15:59N 01°17' E 103°55'0 0.0
2017-Nov-19 15:26N 01°17' E 103°55'0 0.0
2017-Nov-19 15:01N 01°17' E 103°55'0 0.0
2017-Nov-19 14:31N 01°17' E 103°55'0 0.0
2017-Nov-19 14:00N 01°17' E 103°55'0 0.0
2017-Nov-19 13:29N 01°17' E 103°55'0 0.0
2017-Nov-19 12:35N 01°17' E 103°55'0 0.0
2017-Nov-19 12:30N 01°17' E 103°55'0 0.0
2017-Nov-19 11:56N 01°17' E 103°55'0 0.0
2017-Nov-19 11:30N 01°17' E 103°55'0 0.0
2017-Nov-19 11:00N 01°17' E 103°55'0 0.1
2017-Nov-19 10:31N 01°17' E 103°55'3 5.5
2017-Nov-19 10:00N 01°15' E 103°57'2 4.1
2017-Nov-19 09:30N 01°14' E 103°56'4 8.3
2017-Nov-19 09:00N 01°12' E 103°52'510.9
2017-Nov-19 08:30N 01°09' E 103°48'612.1
2017-Nov-19 07:59N 01°05' E 103°43'611.5
2017-Nov-19 07:30N 01°03' E 103°38'711.5
2017-Nov-19 06:54N 01°08' E 103°33'512.1
2017-Nov-19 06:30N 01°13' E 103°32'510.1
2017-Nov-19 05:59N 01°18' E 103°33'3 5.2
2017-Nov-19 05:30N 01°21' E 103°33'0 0.0
2017-Nov-19 04:53N 01°21' E 103°33'0 0.0
2017-Nov-19 04:11N 01°21' E 103°33'0 0.0
2017-Nov-19 03:59N 01°21' E 103°33'0 0.0
2017-Nov-19 02:59N 01°21' E 103°33'0 0.0
2017-Nov-19 02:29N 01°21' E 103°33'0 0.0
2017-Nov-19 01:55N 01°21' E 103°33'0 0.0
2017-Nov-19 01:28N 01°21' E 103°33'0 0.0
2017-Nov-19 00:55N 01°21' E 103°33'0 0.0
2017-Nov-19 00:28N 01°21' E 103°33'0 0.0
2017-Nov-18 23:55N 01°21' E 103°33'0 0.0
2017-Nov-18 23:28N 01°21' E 103°33'0 0.0
2017-Nov-18 22:58N 01°21' E 103°33'0 0.0
2017-Nov-18 22:28N 01°21' E 103°33'0 0.0
2017-Nov-18 22:00N 01°21' E 103°33'0 0.0
2017-Nov-18 21:30N 01°21' E 103°33'0 0.0
2017-Nov-18 20:42N 01°21' E 103°33'0 0.1
2017-Nov-18 20:30N 01°21' E 103°33'0 0.0
2017-Nov-18 19:42N 01°21' E 103°33'0 0.0
2017-Nov-18 19:30N 01°21' E 103°33'0 0.0
2017-Nov-18 19:00N 01°21' E 103°33'0 0.0
2017-Nov-18 18:30N 01°21' E 103°33'0 0.0
2017-Nov-18 18:00N 01°21' E 103°33'0 0.0
2017-Nov-18 17:30N 01°21' E 103°33'0 0.0
2017-Nov-18 16:57N 01°21' E 103°33'0 0.0
2017-Nov-18 16:24N 01°21' E 103°33'0 0.0
2017-Nov-18 15:54N 01°21' E 103°33'0 0.0
2017-Nov-18 15:27N 01°21' E 103°33'0 0.0
2017-Nov-18 14:57N 01°21' E 103°33'0 0.0
2017-Nov-18 14:27N 01°21' E 103°33'0 0.0
2017-Nov-18 13:54N 01°21' E 103°33'0 0.0
2017-Nov-18 13:30N 01°21' E 103°33'0 0.0
2017-Nov-18 13:00N 01°21' E 103°33'0 0.0
2017-Nov-18 12:26N 01°21' E 103°33'1 3.5
2017-Nov-18 12:00N 01°19' E 103°33'611.0
2017-Nov-18 11:30N 01°14' E 103°32'3 6.3
2017-Nov-18 11:01N 01°12' E 103°35'611.1
2017-Nov-18 10:30N 01°10' E 103°40'611.7
2017-Nov-18 10:00N 01°09' E 103°46'612.4
2017-Nov-18 09:30N 01°12' E 103°52'713.6
2017-Nov-18 09:01N 01°15' E 103°58'  

Dump ship's entire track history